sensor_id;sensor_type;location;lat;lon;timestamp;temperature;humidity
7518;DHT22;3800;48.922;9.444;2023-01-04T00:00:03;1.50;99.90
7518;DHT22;3800;48.922;9.444;2023-01-04T00:02:30;1.50;99.90
7518;DHT22;3800;48.922;9.444;2023-01-04T00:04:58;1.50;99.90
7518;DHT22;3800;48.922;9.444;2023-01-04T00:07:27;1.50;99.90
7518;DHT22;3800;48.922;9.444;2023-01-04T00:09:53;1.50;99.90
7518;DHT22;3800;48.922;9.444;2023-01-04T00:12:21;1.40;99.90
7518;DHT22;3800;48.922;9.444;2023-01-04T00:14:49;1.40;99.90
7518;DHT22;3800;48.922;9.444;2023-01-04T00:17:17;1.40;99.90
7518;DHT22;3800;48.922;9.444;2023-01-04T00:19:44;1.40;99.90
7518;DHT22;3800;48.922;9.444;2023-01-04T00:22:12;1.40;99.90
7518;DHT22;3800;48.922;9.444;2023-01-04T00:24:40;1.40;99.90
7518;DHT22;3800;48.922;9.444;2023-01-04T00:27:08;1.40;99.90
7518;DHT22;3800;48.922;9.444;2023-01-04T00:29:36;1.50;99.90
7518;DHT22;3800;48.922;9.444;2023-01-04T00:32:03;1.50;99.90
7518;DHT22;3800;48.922;9.444;2023-01-04T00:34:31;1.50;99.90
7518;DHT22;3800;48.922;9.444;2023-01-04T00:36:58;1.50;99.90
7518;DHT22;3800;48.922;9.444;2023-01-04T00:39:26;1.50;99.90
7518;DHT22;3800;48.922;9.444;2023-01-04T00:41:54;1.60;99.90
7518;DHT22;3800;48.922;9.444;2023-01-04T00:44:22;1.60;99.90
7518;DHT22;3800;48.922;9.444;2023-01-04T00:46:50;1.60;99.90
7518;DHT22;3800;48.922;9.444;2023-01-04T00:49:17;1.60;99.90
7518;DHT22;3800;48.922;9.444;2023-01-04T00:51:45;1.60;99.90
7518;DHT22;3800;48.922;9.444;2023-01-04T00:54:13;1.60;99.90
7518;DHT22;3800;48.922;9.444;2023-01-04T00:56:40;1.60;99.90
7518;DHT22;3800;48.922;9.444;2023-01-04T00:59:08;1.60;99.90
7518;DHT22;3800;48.922;9.444;2023-01-04T01:01:36;1.60;99.90
7518;DHT22;3800;48.922;9.444;2023-01-04T01:04:03;1.60;99.90
7518;DHT22;3800;48.922;9.444;2023-01-04T01:06:32;1.60;99.90
7518;DHT22;3800;48.922;9.444;2023-01-04T01:08:59;1.60;99.90
7518;DHT22;3800;48.922;9.444;2023-01-04T01:11:26;1.60;99.90
7518;DHT22;3800;48.922;9.444;2023-01-04T01:13:55;1.60;99.90
7518;DHT22;3800;48.922;9.444;2023-01-04T01:16:22;1.60;99.90
7518;DHT22;3800;48.922;9.444;2023-01-04T01:18:50;1.50;99.90
7518;DHT22;3800;48.922;9.444;2023-01-04T01:21:21;1.50;99.90
7518;DHT22;3800;48.922;9.444;2023-01-04T01:23:47;1.50;99.90
7518;DHT22;3800;48.922;9.444;2023-01-04T01:26:15;1.40;99.90
7518;DHT22;3800;48.922;9.444;2023-01-04T01:28:42;1.40;99.90
7518;DHT22;3800;48.922;9.444;2023-01-04T01:31:11;1.40;99.90
7518;DHT22;3800;48.922;9.444;2023-01-04T01:33:38;1.40;99.90
7518;DHT22;3800;48.922;9.444;2023-01-04T01:36:06;1.40;99.90
7518;DHT22;3800;48.922;9.444;2023-01-04T01:38:33;1.40;99.90
7518;DHT22;3800;48.922;9.444;2023-01-04T01:41:01;1.40;99.90
7518;DHT22;3800;48.922;9.444;2023-01-04T01:46:08;1.40;99.90
7518;DHT22;3800;48.922;9.444;2023-01-04T01:48:35;1.50;99.90
7518;DHT22;3800;48.922;9.444;2023-01-04T01:51:03;1.50;99.90
7518;DHT22;3800;48.922;9.444;2023-01-04T01:53:31;1.50;99.90
7518;DHT22;3800;48.922;9.444;2023-01-04T01:55:58;1.40;99.90
7518;DHT22;3800;48.922;9.444;2023-01-04T01:58:30;1.40;99.90
7518;DHT22;3800;48.922;9.444;2023-01-04T02:00:55;1.40;99.90
7518;DHT22;3800;48.922;9.444;2023-01-04T02:03:25;1.40;99.90
7518;DHT22;3800;48.922;9.444;2023-01-04T02:05:51;1.30;99.90
7518;DHT22;3800;48.922;9.444;2023-01-04T02:08:19;1.30;99.90
7518;DHT22;3800;48.922;9.444;2023-01-04T02:10:46;1.30;99.90
7518;DHT22;3800;48.922;9.444;2023-01-04T02:13:14;1.20;99.90
7518;DHT22;3800;48.922;9.444;2023-01-04T02:15:49;1.20;99.90
7518;DHT22;3800;48.922;9.444;2023-01-04T02:18:17;1.20;99.90
7518;DHT22;3800;48.922;9.444;2023-01-04T02:20:46;1.10;99.90
7518;DHT22;3800;48.922;9.444;2023-01-04T02:23:27;1.10;99.90
7518;DHT22;3800;48.922;9.444;2023-01-04T02:29:41;0.90;99.90
7518;DHT22;3800;48.922;9.444;2023-01-04T02:31:53;0.80;99.90
7518;DHT22;3800;48.922;9.444;2023-01-04T02:37:02;0.80;99.90
7518;DHT22;3800;48.922;9.444;2023-01-04T02:39:33;0.80;99.90
7518;DHT22;3800;48.922;9.444;2023-01-04T02:45:05;0.80;99.90
7518;DHT22;3800;48.922;9.444;2023-01-04T02:47:24;0.80;99.90
7518;DHT22;3800;48.922;9.444;2023-01-04T02:49:50;0.80;99.90
7518;DHT22;3800;48.922;9.444;2023-01-04T02:52:23;0.80;99.90
7518;DHT22;3800;48.922;9.444;2023-01-04T02:54:52;0.80;99.90
7518;DHT22;3800;48.922;9.444;2023-01-04T03:00:13;0.90;99.90
7518;DHT22;3800;48.922;9.444;2023-01-04T03:02:54;0.90;99.90
7518;DHT22;3800;48.922;9.444;2023-01-04T03:08:29;0.90;99.90
7518;DHT22;3800;48.922;9.444;2023-01-04T03:11:05;1.00;99.90
7518;DHT22;3800;48.922;9.444;2023-01-04T03:13:37;1.00;99.90
7518;DHT22;3800;48.922;9.444;2023-01-04T03:16:06;0.90;99.90
7518;DHT22;3800;48.922;9.444;2023-01-04T03:18:33;0.90;99.90
7518;DHT22;3800;48.922;9.444;2023-01-04T03:21:00;1.00;99.90
7518;DHT22;3800;48.922;9.444;2023-01-04T03:23:30;0.90;99.90
7518;DHT22;3800;48.922;9.444;2023-01-04T03:26:07;1.00;99.90
7518;DHT22;3800;48.922;9.444;2023-01-04T03:28:37;1.00;99.90
7518;DHT22;3800;48.922;9.444;2023-01-04T03:31:29;1.00;99.90
7518;DHT22;3800;48.922;9.444;2023-01-04T03:34:00;1.10;99.90
7518;DHT22;3800;48.922;9.444;2023-01-04T03:36:44;1.10;99.90
7518;DHT22;3800;48.922;9.444;2023-01-04T03:39:33;1.10;99.90
7518;DHT22;3800;48.922;9.444;2023-01-04T03:42:07;1.10;99.90
7518;DHT22;3800;48.922;9.444;2023-01-04T03:44:48;1.10;99.90
7518;DHT22;3800;48.922;9.444;2023-01-04T03:47:32;1.10;99.90
7518;DHT22;3800;48.922;9.444;2023-01-04T03:50:07;1.20;99.90
7518;DHT22;3800;48.922;9.444;2023-01-04T03:52:34;1.20;99.90
7518;DHT22;3800;48.922;9.444;2023-01-04T03:55:02;1.20;99.90
7518;DHT22;3800;48.922;9.444;2023-01-04T03:57:29;1.20;99.90
7518;DHT22;3800;48.922;9.444;2023-01-04T04:00:00;1.20;99.90
7518;DHT22;3800;48.922;9.444;2023-01-04T04:02:27;1.20;99.90
7518;DHT22;3800;48.922;9.444;2023-01-04T04:04:54;1.20;99.90
7518;DHT22;3800;48.922;9.444;2023-01-04T04:07:28;1.20;99.90
7518;DHT22;3800;48.922;9.444;2023-01-04T04:10:00;1.30;99.90
7518;DHT22;3800;48.922;9.444;2023-01-04T04:12:27;1.20;99.90
7518;DHT22;3800;48.922;9.444;2023-01-04T04:14:55;1.20;99.90
7518;DHT22;3800;48.922;9.444;2023-01-04T04:17:23;1.30;99.90
7518;DHT22;3800;48.922;9.444;2023-01-04T04:19:50;1.30;99.90
7518;DHT22;3800;48.922;9.444;2023-01-04T04:22:18;1.40;99.90
7518;DHT22;3800;48.922;9.444;2023-01-04T04:24:45;1.40;99.90
7518;DHT22;3800;48.922;9.444;2023-01-04T04:27:13;1.40;99.90
7518;DHT22;3800;48.922;9.444;2023-01-04T04:29:41;1.50;99.90
7518;DHT22;3800;48.922;9.444;2023-01-04T04:32:09;1.50;99.90
7518;DHT22;3800;48.922;9.444;2023-01-04T04:34:37;1.60;99.90
7518;DHT22;3800;48.922;9.444;2023-01-04T04:37:04;1.70;99.90
7518;DHT22;3800;48.922;9.444;2023-01-04T04:39:32;1.70;99.90
7518;DHT22;3800;48.922;9.444;2023-01-04T04:42:02;1.80;99.90
7518;DHT22;3800;48.922;9.444;2023-01-04T04:44:32;1.90;99.90
7518;DHT22;3800;48.922;9.444;2023-01-04T04:46:58;1.90;99.90
7518;DHT22;3800;48.922;9.444;2023-01-04T04:49:26;2.00;99.90
7518;DHT22;3800;48.922;9.444;2023-01-04T04:51:53;2.00;99.90
7518;DHT22;3800;48.922;9.444;2023-01-04T04:54:22;2.10;99.90
7518;DHT22;3800;48.922;9.444;2023-01-04T04:56:49;2.20;99.90
7518;DHT22;3800;48.922;9.444;2023-01-04T04:59:17;2.20;99.90
7518;DHT22;3800;48.922;9.444;2023-01-04T05:01:45;2.20;99.90
7518;DHT22;3800;48.922;9.444;2023-01-04T05:04:13;2.30;99.90
7518;DHT22;3800;48.922;9.444;2023-01-04T05:06:42;2.30;99.90
7518;DHT22;3800;48.922;9.444;2023-01-04T05:09:12;2.40;99.90
7518;DHT22;3800;48.922;9.444;2023-01-04T05:11:39;2.40;99.90
7518;DHT22;3800;48.922;9.444;2023-01-04T05:14:12;2.50;99.90
7518;DHT22;3800;48.922;9.444;2023-01-04T05:16:39;2.50;99.90
7518;DHT22;3800;48.922;9.444;2023-01-04T05:19:07;2.60;99.90
7518;DHT22;3800;48.922;9.444;2023-01-04T05:21:35;2.60;99.90
7518;DHT22;3800;48.922;9.444;2023-01-04T05:24:02;2.60;99.90
7518;DHT22;3800;48.922;9.444;2023-01-04T05:26:32;2.70;99.90
7518;DHT22;3800;48.922;9.444;2023-01-04T05:28:59;2.70;99.90
7518;DHT22;3800;48.922;9.444;2023-01-04T05:31:27;2.80;99.90
7518;DHT22;3800;48.922;9.444;2023-01-04T05:33:55;2.80;99.90
7518;DHT22;3800;48.922;9.444;2023-01-04T05:36:23;2.90;99.90
7518;DHT22;3800;48.922;9.444;2023-01-04T05:38:51;2.90;99.90
7518;DHT22;3800;48.922;9.444;2023-01-04T05:41:20;3.00;99.90
7518;DHT22;3800;48.922;9.444;2023-01-04T05:43:54;3.00;99.90
7518;DHT22;3800;48.922;9.444;2023-01-04T05:46:22;3.00;99.90
7518;DHT22;3800;48.922;9.444;2023-01-04T05:48:49;3.00;99.90
7518;DHT22;3800;48.922;9.444;2023-01-04T05:51:18;3.00;99.90
7518;DHT22;3800;48.922;9.444;2023-01-04T05:53:45;3.10;99.90
7518;DHT22;3800;48.922;9.444;2023-01-04T05:56:13;3.10;99.90
7518;DHT22;3800;48.922;9.444;2023-01-04T05:58:41;3.20;99.90
7518;DHT22;3800;48.922;9.444;2023-01-04T06:01:08;3.20;99.90
7518;DHT22;3800;48.922;9.444;2023-01-04T06:03:36;3.20;99.90
7518;DHT22;3800;48.922;9.444;2023-01-04T06:06:04;3.30;99.90
7518;DHT22;3800;48.922;9.444;2023-01-04T06:08:32;3.30;99.90
7518;DHT22;3800;48.922;9.444;2023-01-04T06:11:00;3.30;99.90
7518;DHT22;3800;48.922;9.444;2023-01-04T06:13:28;3.40;99.90
7518;DHT22;3800;48.922;9.444;2023-01-04T06:15:56;3.50;99.90
7518;DHT22;3800;48.922;9.444;2023-01-04T06:18:24;3.60;99.90
7518;DHT22;3800;48.922;9.444;2023-01-04T06:20:54;3.80;99.90
7518;DHT22;3800;48.922;9.444;2023-01-04T06:23:22;3.90;99.90
7518;DHT22;3800;48.922;9.444;2023-01-04T06:25:50;4.00;99.90
7518;DHT22;3800;48.922;9.444;2023-01-04T06:28:18;4.10;99.90
7518;DHT22;3800;48.922;9.444;2023-01-04T06:30:45;4.30;99.90
7518;DHT22;3800;48.922;9.444;2023-01-04T06:33:13;4.40;99.90
7518;DHT22;3800;48.922;9.444;2023-01-04T06:35:41;4.60;99.90
7518;DHT22;3800;48.922;9.444;2023-01-04T06:38:09;4.70;99.90
7518;DHT22;3800;48.922;9.444;2023-01-04T06:40:37;4.70;99.90
7518;DHT22;3800;48.922;9.444;2023-01-04T06:43:04;4.70;99.90
7518;DHT22;3800;48.922;9.444;2023-01-04T06:45:32;4.70;99.90
7518;DHT22;3800;48.922;9.444;2023-01-04T06:47:59;4.80;99.90
7518;DHT22;3800;48.922;9.444;2023-01-04T06:50:28;4.80;99.90
7518;DHT22;3800;48.922;9.444;2023-01-04T06:52:55;4.90;99.90
7518;DHT22;3800;48.922;9.444;2023-01-04T06:55:23;5.10;99.90
7518;DHT22;3800;48.922;9.444;2023-01-04T06:57:51;5.20;99.90
7518;DHT22;3800;48.922;9.444;2023-01-04T07:00:18;5.30;99.90
7518;DHT22;3800;48.922;9.444;2023-01-04T07:02:46;5.30;99.90
7518;DHT22;3800;48.922;9.444;2023-01-04T07:05:14;5.40;99.90
7518;DHT22;3800;48.922;9.444;2023-01-04T07:07:43;5.50;99.90
7518;DHT22;3800;48.922;9.444;2023-01-04T07:10:10;5.50;99.90
7518;DHT22;3800;48.922;9.444;2023-01-04T07:12:38;5.60;99.90
7518;DHT22;3800;48.922;9.444;2023-01-04T07:15:06;5.70;99.90
7518;DHT22;3800;48.922;9.444;2023-01-04T07:17:34;5.70;99.90
7518;DHT22;3800;48.922;9.444;2023-01-04T07:20:01;5.80;99.90
7518;DHT22;3800;48.922;9.444;2023-01-04T07:22:29;5.90;99.90
7518;DHT22;3800;48.922;9.444;2023-01-04T07:24:58;5.90;99.90
7518;DHT22;3800;48.922;9.444;2023-01-04T07:27:26;6.10;99.90
7518;DHT22;3800;48.922;9.444;2023-01-04T07:29:53;6.10;99.90
7518;DHT22;3800;48.922;9.444;2023-01-04T07:32:21;6.10;99.90
7518;DHT22;3800;48.922;9.444;2023-01-04T07:34:49;6.10;99.90
7518;DHT22;3800;48.922;9.444;2023-01-04T07:37:16;6.10;99.90
7518;DHT22;3800;48.922;9.444;2023-01-04T07:39:45;6.10;99.90
7518;DHT22;3800;48.922;9.444;2023-01-04T07:42:13;6.20;99.90
7518;DHT22;3800;48.922;9.444;2023-01-04T07:44:40;6.20;99.90
7518;DHT22;3800;48.922;9.444;2023-01-04T07:47:08;6.20;99.90
7518;DHT22;3800;48.922;9.444;2023-01-04T07:49:35;6.30;99.90
7518;DHT22;3800;48.922;9.444;2023-01-04T07:52:03;6.30;99.90
7518;DHT22;3800;48.922;9.444;2023-01-04T07:54:31;6.30;99.90
7518;DHT22;3800;48.922;9.444;2023-01-04T07:56:59;6.30;99.90
7518;DHT22;3800;48.922;9.444;2023-01-04T07:59:26;6.20;99.90
7518;DHT22;3800;48.922;9.444;2023-01-04T08:01:54;6.20;99.90
7518;DHT22;3800;48.922;9.444;2023-01-04T08:04:22;6.20;99.90
7518;DHT22;3800;48.922;9.444;2023-01-04T08:06:49;6.10;99.90
7518;DHT22;3800;48.922;9.444;2023-01-04T08:09:17;6.10;99.90
7518;DHT22;3800;48.922;9.444;2023-01-04T08:11:45;6.10;99.90
7518;DHT22;3800;48.922;9.444;2023-01-04T08:14:13;6.00;99.90
7518;DHT22;3800;48.922;9.444;2023-01-04T08:16:41;6.00;99.90
7518;DHT22;3800;48.922;9.444;2023-01-04T08:19:17;6.00;99.90
7518;DHT22;3800;48.922;9.444;2023-01-04T08:21:43;5.90;99.90
7518;DHT22;3800;48.922;9.444;2023-01-04T08:24:11;6.00;99.90
7518;DHT22;3800;48.922;9.444;2023-01-04T08:26:38;6.00;99.90
7518;DHT22;3800;48.922;9.444;2023-01-04T08:29:06;5.90;99.90
7518;DHT22;3800;48.922;9.444;2023-01-04T08:31:34;5.90;99.90
7518;DHT22;3800;48.922;9.444;2023-01-04T08:34:04;6.00;99.90
7518;DHT22;3800;48.922;9.444;2023-01-04T08:36:31;5.90;99.90
7518;DHT22;3800;48.922;9.444;2023-01-04T08:39:00;6.00;99.90
7518;DHT22;3800;48.922;9.444;2023-01-04T08:41:27;6.00;99.90
7518;DHT22;3800;48.922;9.444;2023-01-04T08:43:54;6.00;99.90
7518;DHT22;3800;48.922;9.444;2023-01-04T08:46:22;6.00;99.90
7518;DHT22;3800;48.922;9.444;2023-01-04T08:48:50;6.00;99.90
7518;DHT22;3800;48.922;9.444;2023-01-04T08:51:18;6.00;99.90
7518;DHT22;3800;48.922;9.444;2023-01-04T08:53:45;6.00;99.90
7518;DHT22;3800;48.922;9.444;2023-01-04T08:56:14;6.10;99.90
7518;DHT22;3800;48.922;9.444;2023-01-04T08:58:41;6.10;99.90
7518;DHT22;3800;48.922;9.444;2023-01-04T09:01:09;6.20;99.90
7518;DHT22;3800;48.922;9.444;2023-01-04T09:03:38;6.20;99.90
7518;DHT22;3800;48.922;9.444;2023-01-04T09:06:08;6.30;99.90
7518;DHT22;3800;48.922;9.444;2023-01-04T09:08:35;6.30;99.90
7518;DHT22;3800;48.922;9.444;2023-01-04T09:11:03;6.40;99.90
7518;DHT22;3800;48.922;9.444;2023-01-04T09:13:30;6.40;99.90
7518;DHT22;3800;48.922;9.444;2023-01-04T09:16:00;6.50;99.90
7518;DHT22;3800;48.922;9.444;2023-01-04T09:18:28;6.50;99.90
7518;DHT22;3800;48.922;9.444;2023-01-04T09:20:57;6.50;99.90
7518;DHT22;3800;48.922;9.444;2023-01-04T09:23:24;6.50;99.90
7518;DHT22;3800;48.922;9.444;2023-01-04T09:25:53;6.50;99.90
7518;DHT22;3800;48.922;9.444;2023-01-04T09:28:20;6.60;99.90
7518;DHT22;3800;48.922;9.444;2023-01-04T09:30:48;6.60;99.90
7518;DHT22;3800;48.922;9.444;2023-01-04T09:33:16;6.60;99.90
7518;DHT22;3800;48.922;9.444;2023-01-04T09:35:44;6.70;99.90
7518;DHT22;3800;48.922;9.444;2023-01-04T09:38:11;6.70;99.90
7518;DHT22;3800;48.922;9.444;2023-01-04T09:40:50;6.70;99.90
7518;DHT22;3800;48.922;9.444;2023-01-04T09:43:17;6.70;99.90
7518;DHT22;3800;48.922;9.444;2023-01-04T09:45:44;6.70;99.90
7518;DHT22;3800;48.922;9.444;2023-01-04T09:48:13;6.80;99.90
7518;DHT22;3800;48.922;9.444;2023-01-04T09:50:50;6.80;99.90
7518;DHT22;3800;48.922;9.444;2023-01-04T09:53:20;6.90;99.90
7518;DHT22;3800;48.922;9.444;2023-01-04T09:55:45;6.90;99.90
7518;DHT22;3800;48.922;9.444;2023-01-04T09:58:29;7.00;99.90
7518;DHT22;3800;48.922;9.444;2023-01-04T10:01:17;7.00;99.90
7518;DHT22;3800;48.922;9.444;2023-01-04T10:03:59;7.00;99.90
7518;DHT22;3800;48.922;9.444;2023-01-04T10:06:25;6.90;99.90
7518;DHT22;3800;48.922;9.444;2023-01-04T10:08:55;6.90;99.90
7518;DHT22;3800;48.922;9.444;2023-01-04T10:11:34;6.90;99.90
7518;DHT22;3800;48.922;9.444;2023-01-04T10:14:03;7.00;99.90
7518;DHT22;3800;48.922;9.444;2023-01-04T10:16:37;7.00;99.90
7518;DHT22;3800;48.922;9.444;2023-01-04T10:19:05;7.10;99.90
7518;DHT22;3800;48.922;9.444;2023-01-04T10:21:36;7.20;99.90
7518;DHT22;3800;48.922;9.444;2023-01-04T10:26:45;7.30;99.90
7518;DHT22;3800;48.922;9.444;2023-01-04T10:29:53;7.30;99.90
7518;DHT22;3800;48.922;9.444;2023-01-04T10:33:12;7.30;99.90
7518;DHT22;3800;48.922;9.444;2023-01-04T10:34:48;7.30;99.90
7518;DHT22;3800;48.922;9.444;2023-01-04T10:37:18;7.40;99.90
7518;DHT22;3800;48.922;9.444;2023-01-04T10:39:45;7.40;99.90
7518;DHT22;3800;48.922;9.444;2023-01-04T10:42:21;7.40;99.90
7518;DHT22;3800;48.922;9.444;2023-01-04T10:44:54;7.40;99.90
7518;DHT22;3800;48.922;9.444;2023-01-04T10:47:25;7.50;99.90
7518;DHT22;3800;48.922;9.444;2023-01-04T10:49:54;7.50;99.90
7518;DHT22;3800;48.922;9.444;2023-01-04T10:52:34;7.50;99.90
7518;DHT22;3800;48.922;9.444;2023-01-04T10:55:02;7.50;99.90
7518;DHT22;3800;48.922;9.444;2023-01-04T10:57:41;7.60;99.90
7518;DHT22;3800;48.922;9.444;2023-01-04T11:00:13;7.60;99.90
7518;DHT22;3800;48.922;9.444;2023-01-04T11:02:54;7.70;99.90
7518;DHT22;3800;48.922;9.444;2023-01-04T11:05:28;7.70;99.90
7518;DHT22;3800;48.922;9.444;2023-01-04T11:07:56;7.80;99.90
7518;DHT22;3800;48.922;9.444;2023-01-04T11:10:26;7.90;99.90
7518;DHT22;3800;48.922;9.444;2023-01-04T11:12:53;7.90;99.90
7518;DHT22;3800;48.922;9.444;2023-01-04T11:15:21;7.90;99.90
7518;DHT22;3800;48.922;9.444;2023-01-04T11:17:49;8.00;99.90
7518;DHT22;3800;48.922;9.444;2023-01-04T11:20:16;8.00;99.90
7518;DHT22;3800;48.922;9.444;2023-01-04T11:22:49;8.10;99.90
7518;DHT22;3800;48.922;9.444;2023-01-04T11:25:16;8.10;99.90
7518;DHT22;3800;48.922;9.444;2023-01-04T11:27:47;8.10;99.90
7518;DHT22;3800;48.922;9.444;2023-01-04T11:30:16;8.10;99.90
7518;DHT22;3800;48.922;9.444;2023-01-04T11:32:48;8.20;99.90
7518;DHT22;3800;48.922;9.444;2023-01-04T11:35:14;8.20;99.90
7518;DHT22;3800;48.922;9.444;2023-01-04T11:37:42;8.20;99.90
7518;DHT22;3800;48.922;9.444;2023-01-04T11:40:12;8.30;99.90
7518;DHT22;3800;48.922;9.444;2023-01-04T11:42:38;8.30;99.90
7518;DHT22;3800;48.922;9.444;2023-01-04T11:45:22;8.30;99.90
7518;DHT22;3800;48.922;9.444;2023-01-04T11:47:52;8.40;99.90
7518;DHT22;3800;48.922;9.444;2023-01-04T11:52:58;8.40;99.90
7518;DHT22;3800;48.922;9.444;2023-01-04T11:55:29;8.40;99.90
7518;DHT22;3800;48.922;9.444;2023-01-04T11:58:09;8.50;99.90
7518;DHT22;3800;48.922;9.444;2023-01-04T12:00:34;8.50;99.90
7518;DHT22;3800;48.922;9.444;2023-01-04T12:03:11;8.50;99.90
7518;DHT22;3800;48.922;9.444;2023-01-04T12:05:38;8.50;99.90
7518;DHT22;3800;48.922;9.444;2023-01-04T12:08:08;8.50;99.90
7518;DHT22;3800;48.922;9.444;2023-01-04T12:10:33;8.60;99.90
7518;DHT22;3800;48.922;9.444;2023-01-04T12:13:01;8.60;99.90
7518;DHT22;3800;48.922;9.444;2023-01-04T12:15:35;8.70;99.90
7518;DHT22;3800;48.922;9.444;2023-01-04T12:18:00;8.70;99.90
7518;DHT22;3800;48.922;9.444;2023-01-04T12:20:26;8.70;99.90
7518;DHT22;3800;48.922;9.444;2023-01-04T12:22:55;8.70;99.90
7518;DHT22;3800;48.922;9.444;2023-01-04T12:25:38;8.70;99.90
7518;DHT22;3800;48.922;9.444;2023-01-04T12:28:05;8.70;99.90
7518;DHT22;3800;48.922;9.444;2023-01-04T12:30:35;8.70;99.90
7518;DHT22;3800;48.922;9.444;2023-01-04T12:35:58;8.70;99.90
7518;DHT22;3800;48.922;9.444;2023-01-04T12:41:04;8.80;99.90
7518;DHT22;3800;48.922;9.444;2023-01-04T12:43:36;8.80;99.90
7518;DHT22;3800;48.922;9.444;2023-01-04T12:48:43;8.80;99.90
7518;DHT22;3800;48.922;9.444;2023-01-04T12:51:19;8.80;99.90
7518;DHT22;3800;48.922;9.444;2023-01-04T12:53:50;8.80;99.90
7518;DHT22;3800;48.922;9.444;2023-01-04T12:56:17;8.90;99.90
7518;DHT22;3800;48.922;9.444;2023-01-04T13:01:26;9.00;99.90
7518;DHT22;3800;48.922;9.444;2023-01-04T13:03:54;9.00;99.90
7518;DHT22;3800;48.922;9.444;2023-01-04T13:06:20;9.00;99.90
7518;DHT22;3800;48.922;9.444;2023-01-04T13:08:48;9.10;99.90
7518;DHT22;3800;48.922;9.444;2023-01-04T13:11:35;9.10;99.90
7518;DHT22;3800;48.922;9.444;2023-01-04T13:14:09;9.20;99.90
7518;DHT22;3800;48.922;9.444;2023-01-04T13:16:52;9.30;99.90
7518;DHT22;3800;48.922;9.444;2023-01-04T13:19:21;9.30;99.90
7518;DHT22;3800;48.922;9.444;2023-01-04T13:21:48;9.30;99.90
7518;DHT22;3800;48.922;9.444;2023-01-04T13:24:21;9.40;99.90
7518;DHT22;3800;48.922;9.444;2023-01-04T13:26:47;9.40;99.90
7518;DHT22;3800;48.922;9.444;2023-01-04T13:29:18;9.40;99.90
7518;DHT22;3800;48.922;9.444;2023-01-04T13:31:47;9.40;99.90
7518;DHT22;3800;48.922;9.444;2023-01-04T13:34:17;9.50;99.90
7518;DHT22;3800;48.922;9.444;2023-01-04T13:36:51;9.50;99.90
7518;DHT22;3800;48.922;9.444;2023-01-04T13:39:11;9.50;99.90
7518;DHT22;3800;48.922;9.444;2023-01-04T13:41:39;9.50;99.90
7518;DHT22;3800;48.922;9.444;2023-01-04T13:44:10;9.50;99.90
7518;DHT22;3800;48.922;9.444;2023-01-04T13:46:40;9.60;99.90
7518;DHT22;3800;48.922;9.444;2023-01-04T13:49:06;9.60;99.90
7518;DHT22;3800;48.922;9.444;2023-01-04T13:51:34;9.60;99.90
7518;DHT22;3800;48.922;9.444;2023-01-04T13:54:03;9.60;99.90
7518;DHT22;3800;48.922;9.444;2023-01-04T13:56:31;9.60;99.90
7518;DHT22;3800;48.922;9.444;2023-01-04T13:58:57;9.60;99.90
7518;DHT22;3800;48.922;9.444;2023-01-04T14:01:29;9.60;99.90
7518;DHT22;3800;48.922;9.444;2023-01-04T14:04:00;9.60;99.90
7518;DHT22;3800;48.922;9.444;2023-01-04T14:06:37;9.70;99.90
7518;DHT22;3800;48.922;9.444;2023-01-04T14:09:05;9.70;99.90
7518;DHT22;3800;48.922;9.444;2023-01-04T14:11:33;9.70;99.90
7518;DHT22;3800;48.922;9.444;2023-01-04T14:14:14;9.70;99.90
7518;DHT22;3800;48.922;9.444;2023-01-04T14:16:34;9.80;99.90
7518;DHT22;3800;48.922;9.444;2023-01-04T14:21:43;9.70;99.90
7518;DHT22;3800;48.922;9.444;2023-01-04T14:26:50;9.80;99.90
7518;DHT22;3800;48.922;9.444;2023-01-04T14:29:19;9.80;99.90
7518;DHT22;3800;48.922;9.444;2023-01-04T14:31:47;9.80;99.90
7518;DHT22;3800;48.922;9.444;2023-01-04T14:34:15;9.80;99.90
7518;DHT22;3800;48.922;9.444;2023-01-04T14:36:42;9.90;99.90
7518;DHT22;3800;48.922;9.444;2023-01-04T14:39:14;9.90;99.90
7518;DHT22;3800;48.922;9.444;2023-01-04T14:41:42;9.90;99.90
7518;DHT22;3800;48.922;9.444;2023-01-04T14:44:11;9.90;99.90
7518;DHT22;3800;48.922;9.444;2023-01-04T14:46:38;9.90;99.90
7518;DHT22;3800;48.922;9.444;2023-01-04T14:49:05;9.90;99.90
7518;DHT22;3800;48.922;9.444;2023-01-04T14:51:41;10.00;99.90
7518;DHT22;3800;48.922;9.444;2023-01-04T14:54:12;9.90;99.90
7518;DHT22;3800;48.922;9.444;2023-01-04T14:56:40;10.00;99.90
7518;DHT22;3800;48.922;9.444;2023-01-04T14:59:08;10.00;99.90
7518;DHT22;3800;48.922;9.444;2023-01-04T15:01:35;10.00;99.90
7518;DHT22;3800;48.922;9.444;2023-01-04T15:04:03;10.00;99.90
7518;DHT22;3800;48.922;9.444;2023-01-04T15:06:31;10.00;99.90
7518;DHT22;3800;48.922;9.444;2023-01-04T15:08:58;10.00;99.90
7518;DHT22;3800;48.922;9.444;2023-01-04T15:11:27;10.00;99.90
7518;DHT22;3800;48.922;9.444;2023-01-04T15:13:54;10.00;99.90
7518;DHT22;3800;48.922;9.444;2023-01-04T15:16:23;10.00;99.90
7518;DHT22;3800;48.922;9.444;2023-01-04T15:18:52;10.00;99.90
7518;DHT22;3800;48.922;9.444;2023-01-04T15:21:20;10.00;99.90
7518;DHT22;3800;48.922;9.444;2023-01-04T15:23:47;10.00;99.90
7518;DHT22;3800;48.922;9.444;2023-01-04T15:26:15;10.00;99.90
7518;DHT22;3800;48.922;9.444;2023-01-04T15:28:43;10.10;99.90
7518;DHT22;3800;48.922;9.444;2023-01-04T15:31:12;10.10;99.90
7518;DHT22;3800;48.922;9.444;2023-01-04T15:33:38;10.10;99.90
7518;DHT22;3800;48.922;9.444;2023-01-04T15:36:10;10.10;99.90
7518;DHT22;3800;48.922;9.444;2023-01-04T15:38:35;10.10;99.90
7518;DHT22;3800;48.922;9.444;2023-01-04T15:41:03;10.10;99.90
7518;DHT22;3800;48.922;9.444;2023-01-04T15:43:33;10.20;99.90
7518;DHT22;3800;48.922;9.444;2023-01-04T15:46:02;10.10;99.90
7518;DHT22;3800;48.922;9.444;2023-01-04T15:48:30;10.20;99.90
7518;DHT22;3800;48.922;9.444;2023-01-04T15:51:00;10.20;99.90
7518;DHT22;3800;48.922;9.444;2023-01-04T15:53:26;10.20;99.90
7518;DHT22;3800;48.922;9.444;2023-01-04T15:56:02;10.20;99.90
7518;DHT22;3800;48.922;9.444;2023-01-04T15:58:24;10.20;99.90
7518;DHT22;3800;48.922;9.444;2023-01-04T16:00:51;10.20;99.90
7518;DHT22;3800;48.922;9.444;2023-01-04T16:03:21;10.20;99.90
7518;DHT22;3800;48.922;9.444;2023-01-04T16:05:49;10.20;99.90
7518;DHT22;3800;48.922;9.444;2023-01-04T16:08:16;10.20;99.90
7518;DHT22;3800;48.922;9.444;2023-01-04T16:10:44;10.20;99.90
7518;DHT22;3800;48.922;9.444;2023-01-04T16:13:12;10.20;99.90
7518;DHT22;3800;48.922;9.444;2023-01-04T16:15:39;10.20;99.90
7518;DHT22;3800;48.922;9.444;2023-01-04T16:18:07;10.20;99.90
7518;DHT22;3800;48.922;9.444;2023-01-04T16:20:38;10.20;99.90
7518;DHT22;3800;48.922;9.444;2023-01-04T16:23:04;10.20;99.90
7518;DHT22;3800;48.922;9.444;2023-01-04T16:25:32;10.20;99.90
7518;DHT22;3800;48.922;9.444;2023-01-04T16:27:59;10.30;99.90
7518;DHT22;3800;48.922;9.444;2023-01-04T16:30:31;10.30;99.90
7518;DHT22;3800;48.922;9.444;2023-01-04T16:32:55;10.20;99.90
7518;DHT22;3800;48.922;9.444;2023-01-04T16:35:23;10.30;99.90
7518;DHT22;3800;48.922;9.444;2023-01-04T16:37:51;10.30;99.90
7518;DHT22;3800;48.922;9.444;2023-01-04T16:40:19;10.20;99.90
7518;DHT22;3800;48.922;9.444;2023-01-04T16:42:46;10.20;99.90
7518;DHT22;3800;48.922;9.444;2023-01-04T16:45:14;10.20;99.90
7518;DHT22;3800;48.922;9.444;2023-01-04T16:47:42;10.20;99.90
7518;DHT22;3800;48.922;9.444;2023-01-04T16:50:10;10.20;99.90
7518;DHT22;3800;48.922;9.444;2023-01-04T16:52:37;10.20;99.90
7518;DHT22;3800;48.922;9.444;2023-01-04T16:55:06;10.30;99.90
7518;DHT22;3800;48.922;9.444;2023-01-04T16:57:34;10.30;99.90
7518;DHT22;3800;48.922;9.444;2023-01-04T17:00:02;10.30;99.90
7518;DHT22;3800;48.922;9.444;2023-01-04T17:02:30;10.30;99.90
7518;DHT22;3800;48.922;9.444;2023-01-04T17:04:58;10.30;99.90